sensor_id;sensor_type;location;lat;lon;timestamp;temperature;humidity
32895;DHT22;19251;49.484;8.260;2022-10-31T00:04:11;13.90;28.90
32895;DHT22;19251;49.484;8.260;2022-10-31T00:09:13;13.80;29.10
32895;DHT22;19251;49.484;8.260;2022-10-31T00:14:16;14.00;29.10
32895;DHT22;19251;49.484;8.260;2022-10-31T00:19:18;13.70;28.40
32895;DHT22;19251;49.484;8.260;2022-10-31T00:24:20;13.70;28.60
32895;DHT22;19251;49.484;8.260;2022-10-31T00:29:22;13.60;28.40
32895;DHT22;19251;49.484;8.260;2022-10-31T00:34:24;13.60;28.80
32895;DHT22;19251;49.484;8.260;2022-10-31T00:39:26;13.50;28.40
32895;DHT22;19251;49.484;8.260;2022-10-31T00:44:28;13.50;28.60
32895;DHT22;19251;49.484;8.260;2022-10-31T00:49:30;13.70;28.80
32895;DHT22;19251;49.484;8.260;2022-10-31T00:54:32;13.40;28.60
32895;DHT22;19251;49.484;8.260;2022-10-31T01:04:38;13.20;28.70
32895;DHT22;19251;49.484;8.260;2022-10-31T01:09:40;13.30;29.40
32895;DHT22;19251;49.484;8.260;2022-10-31T01:14:44;13.30;28.90
32895;DHT22;19251;49.484;8.260;2022-10-31T01:19:46;13.30;29.00
32895;DHT22;19251;49.484;8.260;2022-10-31T01:24:48;13.30;29.10
32895;DHT22;19251;49.484;8.260;2022-10-31T01:29:53;13.30;29.10
32895;DHT22;19251;49.484;8.260;2022-10-31T01:34:55;13.40;29.40
32895;DHT22;19251;49.484;8.260;2022-10-31T01:39:57;13.40;29.40
32895;DHT22;19251;49.484;8.260;2022-10-31T01:45:01;13.60;29.50
32895;DHT22;19251;49.484;8.260;2022-10-31T01:50:10;13.40;30.00
32895;DHT22;19251;49.484;8.260;2022-10-31T01:55:16;13.50;29.60
32895;DHT22;19251;49.484;8.260;2022-10-31T02:00:20;13.50;29.60
32895;DHT22;19251;49.484;8.260;2022-10-31T02:15:32;13.40;29.60
32895;DHT22;19251;49.484;8.260;2022-10-31T02:20:48;13.50;29.60
32895;DHT22;19251;49.484;8.260;2022-10-31T02:46:54;13.40;29.50
32895;DHT22;19251;49.484;8.260;2022-10-31T02:52:00;13.30;29.50
32895;DHT22;19251;49.484;8.260;2022-10-31T02:57:05;13.30;29.50
32895;DHT22;19251;49.484;8.260;2022-10-31T03:02:28;13.20;29.30
32895;DHT22;19251;49.484;8.260;2022-10-31T03:07:47;13.20;30.00
32895;DHT22;19251;49.484;8.260;2022-10-31T03:23:53;13.10;29.70
32895;DHT22;19251;49.484;8.260;2022-10-31T03:29:07;13.10;29.80
32895;DHT22;19251;49.484;8.260;2022-10-31T03:34:13;13.10;29.90
32895;DHT22;19251;49.484;8.260;2022-10-31T03:39:18;13.10;29.80
32895;DHT22;19251;49.484;8.260;2022-10-31T03:44:23;13.20;30.00
32895;DHT22;19251;49.484;8.260;2022-10-31T03:49:31;13.10;29.80
32895;DHT22;19251;49.484;8.260;2022-10-31T03:54:42;13.10;29.80
32895;DHT22;19251;49.484;8.260;2022-10-31T04:00:06;13.10;29.80
32895;DHT22;19251;49.484;8.260;2022-10-31T04:05:19;12.90;30.00
32895;DHT22;19251;49.484;8.260;2022-10-31T04:10:23;13.10;30.50
32895;DHT22;19251;49.484;8.260;2022-10-31T04:15:35;13.00;29.90
32895;DHT22;19251;49.484;8.260;2022-10-31T04:20:40;13.10;29.80
32895;DHT22;19251;49.484;8.260;2022-10-31T04:25:42;13.10;30.00
32895;DHT22;19251;49.484;8.260;2022-10-31T04:30:45;13.10;29.90
32895;DHT22;19251;49.484;8.260;2022-10-31T04:35:48;13.10;30.00
32895;DHT22;19251;49.484;8.260;2022-10-31T04:40:50;13.00;30.40
32895;DHT22;19251;49.484;8.260;2022-10-31T04:45:54;13.20;30.10
32895;DHT22;19251;49.484;8.260;2022-10-31T04:51:00;13.10;30.10
32895;DHT22;19251;49.484;8.260;2022-10-31T04:56:03;13.00;29.90
32895;DHT22;19251;49.484;8.260;2022-10-31T05:01:07;13.00;30.00
32895;DHT22;19251;49.484;8.260;2022-10-31T05:06:09;13.00;30.50
32895;DHT22;19251;49.484;8.260;2022-10-31T05:11:13;13.00;30.20
32895;DHT22;19251;49.484;8.260;2022-10-31T05:16:17;12.80;30.20
32895;DHT22;19251;49.484;8.260;2022-10-31T05:21:21;12.90;30.50
32895;DHT22;19251;49.484;8.260;2022-10-31T05:26:23;12.90;30.00
32895;DHT22;19251;49.484;8.260;2022-10-31T05:31:27;12.90;30.00
32895;DHT22;19251;49.484;8.260;2022-10-31T05:36:30;12.90;30.00
32895;DHT22;19251;49.484;8.260;2022-10-31T05:41:32;12.90;30.10
32895;DHT22;19251;49.484;8.260;2022-10-31T05:46:35;12.90;30.00
32895;DHT22;19251;49.484;8.260;2022-10-31T05:51:42;13.10;30.70
32895;DHT22;19251;49.484;8.260;2022-10-31T06:01:46;12.90;30.00
32895;DHT22;19251;49.484;8.260;2022-10-31T06:06:51;12.80;30.00
32895;DHT22;19251;49.484;8.260;2022-10-31T06:11:54;12.90;30.10
32895;DHT22;19251;49.484;8.260;2022-10-31T06:17:04;12.70;30.00
32895;DHT22;19251;49.484;8.260;2022-10-31T06:22:09;13.00;30.40
32895;DHT22;19251;49.484;8.260;2022-10-31T06:27:13;12.90;30.40
32895;DHT22;19251;49.484;8.260;2022-10-31T06:32:16;12.90;30.60
32895;DHT22;19251;49.484;8.260;2022-10-31T06:37:18;13.00;31.10
32895;DHT22;19251;49.484;8.260;2022-10-31T06:42:20;13.10;30.90
32895;DHT22;19251;49.484;8.260;2022-10-31T06:47:23;13.20;31.20
32895;DHT22;19251;49.484;8.260;2022-10-31T06:52:28;13.20;31.00
32895;DHT22;19251;49.484;8.260;2022-10-31T06:57:31;13.30;31.30
32895;DHT22;19251;49.484;8.260;2022-10-31T07:02:33;13.30;31.10
32895;DHT22;19251;49.484;8.260;2022-10-31T07:07:35;13.40;31.20
32895;DHT22;19251;49.484;8.260;2022-10-31T07:12:38;13.40;31.90
32895;DHT22;19251;49.484;8.260;2022-10-31T07:17:40;13.60;31.50
32895;DHT22;19251;49.484;8.260;2022-10-31T07:22:42;13.50;32.10
32895;DHT22;19251;49.484;8.260;2022-10-31T07:27:53;13.80;31.90
32895;DHT22;19251;49.484;8.260;2022-10-31T07:32:55;13.80;31.80
32895;DHT22;19251;49.484;8.260;2022-10-31T07:38:10;14.00;32.00
32895;DHT22;19251;49.484;8.260;2022-10-31T07:43:12;14.20;32.30
32895;DHT22;19251;49.484;8.260;2022-10-31T07:48:17;14.20;32.30
32895;DHT22;19251;49.484;8.260;2022-10-31T07:53:24;14.20;32.60
32895;DHT22;19251;49.484;8.260;2022-10-31T07:58:27;14.60;32.70
32895;DHT22;19251;49.484;8.260;2022-10-31T08:03:32;14.80;32.80
32895;DHT22;19251;49.484;8.260;2022-10-31T08:08:39;15.00;32.80
32895;DHT22;19251;49.484;8.260;2022-10-31T08:13:41;14.90;32.60
32895;DHT22;19251;49.484;8.260;2022-10-31T08:18:47;15.50;33.10
32895;DHT22;19251;49.484;8.260;2022-10-31T08:23:50;15.50;32.90
32895;DHT22;19251;49.484;8.260;2022-10-31T08:28:53;15.70;33.10
32895;DHT22;19251;49.484;8.260;2022-10-31T08:33:57;16.10;33.40
32895;DHT22;19251;49.484;8.260;2022-10-31T08:39:10;16.10;33.30
32895;DHT22;19251;49.484;8.260;2022-10-31T08:44:13;16.40;33.30
32895;DHT22;19251;49.484;8.260;2022-10-31T08:49:17;16.40;34.00
32895;DHT22;19251;49.484;8.260;2022-10-31T08:54:20;16.70;34.00
32895;DHT22;19251;49.484;8.260;2022-10-31T08:59:29;16.90;32.80
32895;DHT22;19251;49.484;8.260;2022-10-31T09:04:34;17.10;33.50
32895;DHT22;19251;49.484;8.260;2022-10-31T09:09:37;17.50;32.60
32895;DHT22;19251;49.484;8.260;2022-10-31T09:14:39;17.60;32.30
32895;DHT22;19251;49.484;8.260;2022-10-31T09:19:42;17.80;32.10
32895;DHT22;19251;49.484;8.260;2022-10-31T09:24:44;17.90;31.80
32895;DHT22;19251;49.484;8.260;2022-10-31T09:29:47;18.00;31.90
32895;DHT22;19251;49.484;8.260;2022-10-31T09:34:51;18.30;32.20
32895;DHT22;19251;49.484;8.260;2022-10-31T09:39:53;18.30;31.80
32895;DHT22;19251;49.484;8.260;2022-10-31T09:50:51;18.50;31.50
32895;DHT22;19251;49.484;8.260;2022-10-31T09:55:56;18.70;31.10
32895;DHT22;19251;49.484;8.260;2022-10-31T10:01:01;18.90;31.00
32895;DHT22;19251;49.484;8.260;2022-10-31T10:11:48;19.20;30.00
32895;DHT22;19251;49.484;8.260;2022-10-31T10:33:02;19.80;29.40
32895;DHT22;19251;49.484;8.260;2022-10-31T10:43:37;20.10;29.20
32895;DHT22;19251;49.484;8.260;2022-10-31T10:54:02;20.50;29.00
32895;DHT22;19251;49.484;8.260;2022-10-31T10:59:19;20.70;28.60
32895;DHT22;19251;49.484;8.260;2022-10-31T11:09:31;21.00;27.80
32895;DHT22;19251;49.484;8.260;2022-10-31T11:14:51;21.20;27.40
32895;DHT22;19251;49.484;8.260;2022-10-31T11:20:30;21.30;27.20
32895;DHT22;19251;49.484;8.260;2022-10-31T11:25:33;21.40;27.20
32895;DHT22;19251;49.484;8.260;2022-10-31T11:30:45;21.70;26.30
32895;DHT22;19251;49.484;8.260;2022-10-31T11:35:48;21.80;26.40
32895;DHT22;19251;49.484;8.260;2022-10-31T11:46:11;22.20;25.90
32895;DHT22;19251;49.484;8.260;2022-10-31T11:51:24;22.00;25.50
32895;DHT22;19251;49.484;8.260;2022-10-31T11:56:26;22.00;24.70
32895;DHT22;19251;49.484;8.260;2022-10-31T12:06:36;22.10;25.00
32895;DHT22;19251;49.484;8.260;2022-10-31T12:17:20;22.10;24.60
32895;DHT22;19251;49.484;8.260;2022-10-31T12:28:08;22.10;24.00
32895;DHT22;19251;49.484;8.260;2022-10-31T12:49:24;22.00;24.90
32895;DHT22;19251;49.484;8.260;2022-10-31T12:54:52;22.00;24.50
32895;DHT22;19251;49.484;8.260;2022-10-31T13:00:02;22.00;24.70
32895;DHT22;19251;49.484;8.260;2022-10-31T13:10:37;22.00;24.60
32895;DHT22;19251;49.484;8.260;2022-10-31T13:16:00;22.00;24.60
32895;DHT22;19251;49.484;8.260;2022-10-31T13:21:12;22.00;24.90
32895;DHT22;19251;49.484;8.260;2022-10-31T13:26:50;22.00;24.80
32895;DHT22;19251;49.484;8.260;2022-10-31T13:31:54;22.10;25.50
32895;DHT22;19251;49.484;8.260;2022-10-31T13:37:22;22.20;25.00
32895;DHT22;19251;49.484;8.260;2022-10-31T13:42:55;22.80;24.80
32895;DHT22;19251;49.484;8.260;2022-10-31T13:53:20;23.20;23.70
32895;DHT22;19251;49.484;8.260;2022-10-31T13:58:28;23.50;23.60
32895;DHT22;19251;49.484;8.260;2022-10-31T14:03:33;24.10;22.20
32895;DHT22;19251;49.484;8.260;2022-10-31T14:08:57;24.50;22.10
32895;DHT22;19251;49.484;8.260;2022-10-31T14:14:00;24.70;20.70
32895;DHT22;19251;49.484;8.260;2022-10-31T14:19:08;24.40;20.10
32895;DHT22;19251;49.484;8.260;2022-10-31T14:29:31;24.00;19.60
32895;DHT22;19251;49.484;8.260;2022-10-31T14:50:54;22.80;21.00
32895;DHT22;19251;49.484;8.260;2022-10-31T14:55:58;22.40;21.60
32895;DHT22;19251;49.484;8.260;2022-10-31T15:01:15;22.30;21.40
32895;DHT22;19251;49.484;8.260;2022-10-31T15:06:21;22.10;21.70
32895;DHT22;19251;49.484;8.260;2022-10-31T15:11:26;21.80;22.30
32895;DHT22;19251;49.484;8.260;2022-10-31T15:16:34;21.70;22.20
32895;DHT22;19251;49.484;8.260;2022-10-31T15:21:44;21.40;22.50
32895;DHT22;19251;49.484;8.260;2022-10-31T15:26:49;21.20;22.60
32895;DHT22;19251;49.484;8.260;2022-10-31T15:32:33;21.10;22.90
32895;DHT22;19251;49.484;8.260;2022-10-31T15:37:34;20.90;23.40
32895;DHT22;19251;49.484;8.260;2022-10-31T15:42:40;20.80;23.90
32895;DHT22;19251;49.484;8.260;2022-10-31T15:52:57;20.60;24.20
32895;DHT22;19251;49.484;8.260;2022-10-31T15:58:14;20.50;24.30
32895;DHT22;19251;49.484;8.260;2022-10-31T16:08:24;20.10;24.50
32895;DHT22;19251;49.484;8.260;2022-10-31T16:13:29;19.90;24.90
32895;DHT22;19251;49.484;8.260;2022-10-31T16:18:36;19.70;25.40
32895;DHT22;19251;49.484;8.260;2022-10-31T16:23:44;19.50;25.50
32895;DHT22;19251;49.484;8.260;2022-10-31T16:28:58;19.40;25.70
32895;DHT22;19251;49.484;8.260;2022-10-31T16:34:21;19.30;25.40
32895;DHT22;19251;49.484;8.260;2022-10-31T16:39:27;19.20;25.60
32895;DHT22;19251;49.484;8.260;2022-10-31T16:44:29;19.10;25.80
32895;DHT22;19251;49.484;8.260;2022-10-31T16:49:32;19.10;26.10
32895;DHT22;19251;49.484;8.260;2022-10-31T16:54:34;18.60;25.90
32895;DHT22;19251;49.484;8.260;2022-10-31T16:59:39;18.80;26.50
32895;DHT22;19251;49.484;8.260;2022-10-31T17:04:42;18.80;26.50
32895;DHT22;19251;49.484;8.260;2022-10-31T17:09:44;18.70;27.50
32895;DHT22;19251;49.484;8.260;2022-10-31T17:14:49;18.50;26.70
32895;DHT22;19251;49.484;8.260;2022-10-31T17:19:54;18.20;26.60
32895;DHT22;19251;49.484;8.260;2022-10-31T17:24:56;18.30;26.80
32895;DHT22;19251;49.484;8.260;2022-10-31T17:29:58;17.90;26.90
32895;DHT22;19251;49.484;8.260;2022-10-31T17:35:00;17.70;26.60
32895;DHT22;19251;49.484;8.260;2022-10-31T17:40:02;17.50;26.80
32895;DHT22;19251;49.484;8.260;2022-10-31T17:45:05;17.40;27.10
32895;DHT22;19251;49.484;8.260;2022-10-31T17:50:08;17.40;27.00
32895;DHT22;19251;49.484;8.260;2022-10-31T17:55:11;17.10;27.20
32895;DHT22;19251;49.484;8.260;2022-10-31T18:00:16;17.10;27.20
32895;DHT22;19251;49.484;8.260;2022-10-31T18:05:19;16.90;27.60
32895;DHT22;19251;49.484;8.260;2022-10-31T18:10:21;16.90;27.60
32895;DHT22;19251;49.484;8.260;2022-10-31T18:15:23;16.90;28.00
32895;DHT22;19251;49.484;8.260;2022-10-31T18:20:25;16.70;28.00
32895;DHT22;19251;49.484;8.260;2022-10-31T18:25:27;16.50;28.10
32895;DHT22;19251;49.484;8.260;2022-10-31T18:30:30;16.60;28.10
32895;DHT22;19251;49.484;8.260;2022-10-31T18:35:37;16.20;28.00
32895;DHT22;19251;49.484;8.260;2022-10-31T18:40:40;16.30;28.90
32895;DHT22;19251;49.484;8.260;2022-10-31T18:45:42;16.20;28.60
32895;DHT22;19251;49.484;8.260;2022-10-31T18:50:53;16.20;28.60
32895;DHT22;19251;49.484;8.260;2022-10-31T18:55:59;16.20;28.90
32895;DHT22;19251;49.484;8.260;2022-10-31T19:01:10;16.10;29.30
32895;DHT22;19251;49.484;8.260;2022-10-31T19:06:12;16.10;29.10
32895;DHT22;19251;49.484;8.260;2022-10-31T19:11:15;16.10;29.10
32895;DHT22;19251;49.484;8.260;2022-10-31T19:16:17;16.00;29.30
32895;DHT22;19251;49.484;8.260;2022-10-31T19:21:19;16.00;29.40
32895;DHT22;19251;49.484;8.260;2022-10-31T19:26:21;16.00;29.30
32895;DHT22;19251;49.484;8.260;2022-10-31T19:31:24;15.90;29.30
32895;DHT22;19251;49.484;8.260;2022-10-31T19:36:26;15.80;29.20
32895;DHT22;19251;49.484;8.260;2022-10-31T19:41:28;15.80;29.20
32895;DHT22;19251;49.484;8.260;2022-10-31T19:46:30;15.30;28.90
32895;DHT22;19251;49.484;8.260;2022-10-31T19:51:52;15.80;29.30
32895;DHT22;19251;49.484;8.260;2022-10-31T19:56:55;15.50;29.20
32895;DHT22;19251;49.484;8.260;2022-10-31T20:01:57;15.70;29.60
32895;DHT22;19251;49.484;8.260;2022-10-31T20:06:59;15.60;29.50
32895;DHT22;19251;49.484;8.260;2022-10-31T20:12:01;15.90;29.90
32895;DHT22;19251;49.484;8.260;2022-10-31T20:17:03;15.50;29.60
32895;DHT22;19251;49.484;8.260;2022-10-31T20:22:05;15.50;29.60
32895;DHT22;19251;49.484;8.260;2022-10-31T20:32:10;15.50;29.60
32895;DHT22;19251;49.484;8.260;2022-10-31T20:37:12;15.40;29.60
32895;DHT22;19251;49.484;8.260;2022-10-31T20:42:14;15.40;29.60
32895;DHT22;19251;49.484;8.260;2022-10-31T20:47:16;15.30;29.50
32895;DHT22;19251;49.484;8.260;2022-10-31T20:52:24;15.50;29.70
32895;DHT22;19251;49.484;8.260;2022-10-31T20:57:26;15.20;29.40
32895;DHT22;19251;49.484;8.260;2022-10-31T21:07:31;15.20;29.50
32895;DHT22;19251;49.484;8.260;2022-10-31T21:12:33;15.20;29.40
32895;DHT22;19251;49.484;8.260;2022-10-31T21:17:35;15.10;29.30
32895;DHT22;19251;49.484;8.260;2022-10-31T21:22:38;15.10;29.40
32895;DHT22;19251;49.484;8.260;2022-10-31T21:27:40;15.10;29.90
32895;DHT22;19251;49.484;8.260;2022-10-31T21:32:42;15.10;29.40
32895;DHT22;19251;49.484;8.260;2022-10-31T21:37:44;15.00;29.50
32895;DHT22;19251;49.484;8.260;2022-10-31T21:42:46;15.00;29.70
32895;DHT22;19251;49.484;8.260;2022-10-31T21:47:49;15.00;29.90
32895;DHT22;19251;49.484;8.260;2022-10-31T21:52:51;15.20;30.70
32895;DHT22;19251;49.484;8.260;2022-10-31T21:57:53;15.10;31.40
32895;DHT22;19251;49.484;8.260;2022-10-31T22:02:56;15.20;31.40
32895;DHT22;19251;49.484;8.260;2022-10-31T22:13:01;15.60;31.50
32895;DHT22;19251;49.484;8.260;2022-10-31T22:18:03;15.40;31.20
32895;DHT22;19251;49.484;8.260;2022-10-31T22:23:05;15.30;31.10
32895;DHT22;19251;49.484;8.260;2022-10-31T22:28:08;15.50;31.40
32895;DHT22;19251;49.484;8.260;2022-10-31T22:33:11;15.50;31.30
32895;DHT22;19251;49.484;8.260;2022-10-31T22:38:13;15.60;31.40
32895;DHT22;19251;49.484;8.260;2022-10-31T22:43:15;15.70;31.40
32895;DHT22;19251;49.484;8.260;2022-10-31T22:48:17;16.00;31.70
32895;DHT22;19251;49.484;8.260;2022-10-31T22:53:19;15.80;31.60
32895;DHT22;19251;49.484;8.260;2022-10-31T22:58:22;15.70;31.50
32895;DHT22;19251;49.484;8.260;2022-10-31T23:03:24;15.70;31.70
32895;DHT22;19251;49.484;8.260;2022-10-31T23:08:28;15.80;31.80
32895;DHT22;19251;49.484;8.260;2022-10-31T23:13:30;15.80;31.80
32895;DHT22;19251;49.484;8.260;2022-10-31T23:18:51;15.80;31.80
32895;DHT22;19251;49.484;8.260;2022-10-31T23:23:53;15.80;31.80
32895;DHT22;19251;49.484;8.260;2022-10-31T23:28:58;15.90;31.90
32895;DHT22;19251;49.484;8.260;2022-10-31T23:34:00;15.90;32.10
32895;DHT22;19251;49.484;8.260;2022-10-31T23:39:03;16.00;32.30
32895;DHT22;19251;49.484;8.260;2022-10-31T23:44:05;15.70;32.00
32895;DHT22;19251;49.484;8.260;2022-10-31T23:49:07;15.90;32.40
32895;DHT22;19251;49.484;8.260;2022-10-31T23:54:10;15.90;32.60
32895;DHT22;19251;49.484;8.260;2022-10-31T23:59:12;15.90;32.70
